createdAt,value
2023-05-07T04:00:29.887Z,2.00
2023-05-07T04:05:29.781Z,1.70
2023-05-07T04:10:29.721Z,1.80
2023-05-07T04:15:29.653Z,1.80
2023-05-07T04:20:29.700Z,1.70
2023-05-07T04:25:29.540Z,1.60
2023-05-07T04:30:29.897Z,1.60
2023-05-07T04:35:29.412Z,1.60
2023-05-07T04:40:29.458Z,1.60
2023-05-07T04:45:29.294Z,1.70
2023-05-07T04:50:29.283Z,1.60
2023-05-07T04:55:29.224Z,1.40
2023-05-07T05:00:29.245Z,1.40
2023-05-07T05:05:29.084Z,1.50
2023-05-07T05:10:29.051Z,1.40
2023-05-07T05:15:29.282Z,1.80
2023-05-07T05:20:29.008Z,1.50
2023-05-07T05:25:28.886Z,1.30
2023-05-07T05:30:28.814Z,1.40
2023-05-07T05:35:28.965Z,1.30
2023-05-07T05:40:28.793Z,1.30
2023-05-07T05:45:28.677Z,1.50
2023-05-07T05:50:28.611Z,1.30
2023-05-07T05:55:28.547Z,1.30
2023-05-07T06:00:28.593Z,1.60
2023-05-07T06:05:28.574Z,1.30
2023-05-07T06:10:28.485Z,1.20
2023-05-07T06:15:28.337Z,1.30
2023-05-07T06:20:28.514Z,1.10
2023-05-07T06:25:28.244Z,1.20
2023-05-07T06:30:28.209Z,1.10
2023-05-07T06:35:28.109Z,1.10
2023-05-07T06:40:28.073Z,1.40
2023-05-07T06:45:28.026Z,1.10
2023-05-07T06:50:27.974Z,1.20
2023-05-07T06:55:27.921Z,1.60
2023-05-07T07:00:27.865Z,1.00
2023-05-07T07:05:27.808Z,1.10
2023-05-07T07:10:27.754Z,1.10
2023-05-07T07:15:27.692Z,1.00
2023-05-07T07:20:27.655Z,1.00
2023-05-07T07:25:27.573Z,1.10
2023-05-07T07:30:27.511Z,1.40
2023-05-07T07:35:27.465Z,1.10
2023-05-07T07:40:27.438Z,0.90
2023-05-07T07:45:27.369Z,1.10
2023-05-07T07:50:42.872Z,1.10
2023-05-07T07:55:27.246Z,0.80
2023-05-07T08:00:27.242Z,0.90
2023-05-07T08:05:27.133Z,0.90
2023-05-07T08:10:27.109Z,1.00
2023-05-07T08:15:27.028Z,0.70
2023-05-07T08:20:27.265Z,0.80
2023-05-07T08:25:27.049Z,1.00
2023-05-07T08:30:26.898Z,1.10
2023-05-07T08:35:26.842Z,1.20
2023-05-07T08:40:26.796Z,0.80
2023-05-07T08:45:26.720Z,0.90
2023-05-07T08:50:26.659Z,0.80
2023-05-07T08:55:26.608Z,0.80
2023-05-07T09:00:26.577Z,0.90
2023-05-07T09:05:26.506Z,0.90
2023-05-07T09:10:26.449Z,1.20
2023-05-07T09:15:26.401Z,1.00
2023-05-07T09:20:26.442Z,1.00
2023-05-07T09:25:26.302Z,1.10
2023-05-07T09:30:26.242Z,1.10
2023-05-07T09:35:26.268Z,1.00
2023-05-07T09:40:26.260Z,0.80
2023-05-07T09:45:26.162Z,0.70
2023-05-07T09:50:26.026Z,0.90
2023-05-07T09:55:25.980Z,0.90
2023-05-07T10:00:26.205Z,0.70
2023-05-07T10:05:25.871Z,0.60
2023-05-07T10:10:25.832Z,0.80
2023-05-07T10:15:25.774Z,0.60
2023-05-07T10:20:25.826Z,0.70
2023-05-07T10:25:25.675Z,0.70
2023-05-07T10:30:27.544Z,0.60
2023-05-07T10:35:25.558Z,0.60
2023-05-07T10:40:25.620Z,0.80
2023-05-07T10:45:25.467Z,0.70
2023-05-07T10:50:25.588Z,0.90
2023-05-07T10:55:25.357Z,0.90
2023-05-07T11:05:26.291Z,0.70
2023-05-07T11:10:25.191Z,0.60
2023-05-07T11:15:25.138Z,0.80
2023-05-07T11:20:25.176Z,0.70
2023-05-07T11:25:25.037Z,0.70
2023-05-07T11:30:24.988Z,0.70
2023-05-07T11:35:24.939Z,0.90
2023-05-07T11:40:24.970Z,0.70
2023-05-07T11:45:24.821Z,0.90
2023-05-07T11:50:24.793Z,1.10
2023-05-07T11:55:24.709Z,0.90
2023-05-07T12:00:24.685Z,0.90
2023-05-07T12:05:24.606Z,1.00
2023-05-07T12:10:24.558Z,0.80
2023-05-07T12:15:24.511Z,0.80
2023-05-07T12:20:24.481Z,0.90
2023-05-07T12:25:24.395Z,1.10
2023-05-07T12:30:24.346Z,0.80
2023-05-07T12:35:24.297Z,0.90
2023-05-07T12:40:24.265Z,0.90
2023-05-07T12:45:24.187Z,0.90
2023-05-07T12:50:24.139Z,0.90
2023-05-07T12:55:24.081Z,1.10
2023-05-07T13:00:24.083Z,1.00
2023-05-07T13:05:24.009Z,1.00
2023-05-07T13:10:23.919Z,1.00
2023-05-07T13:15:23.879Z,1.00
2023-05-07T13:20:23.833Z,1.20
2023-05-07T13:25:23.772Z,1.70
2023-05-07T13:30:23.703Z,2.10
2023-05-07T13:35:23.663Z,1.90
2023-05-07T13:40:23.625Z,2.00
2023-05-07T13:45:23.546Z,1.90
2023-05-07T13:50:23.483Z,2.10
2023-05-07T13:55:23.428Z,1.70
2023-05-07T14:00:23.380Z,1.20
2023-05-07T14:05:23.331Z,1.30
2023-05-07T14:10:23.270Z,1.30
2023-05-07T14:15:23.242Z,1.30
2023-05-07T14:20:23.181Z,1.40
2023-05-07T14:25:23.112Z,1.30
2023-05-07T14:30:23.054Z,1.40
2023-05-07T14:35:23.002Z,1.60
2023-05-07T14:40:22.961Z,1.60
2023-05-07T14:45:22.902Z,2.20
2023-05-07T14:50:22.844Z,2.10
2023-05-07T14:55:22.803Z,1.60
2023-05-07T15:00:22.755Z,2.10
2023-05-07T15:05:23.141Z,2.60
2023-05-07T15:10:22.623Z,3.00
2023-05-07T15:15:22.578Z,3.20
2023-05-07T15:20:22.571Z,3.60
2023-05-07T15:25:22.482Z,4.40
2023-05-07T15:30:22.432Z,4.70
2023-05-07T15:35:22.355Z,4.80
2023-05-07T15:40:22.345Z,4.70
2023-05-07T15:45:22.234Z,4.80
2023-05-07T15:50:22.189Z,4.80
2023-05-07T15:55:22.134Z,4.90
2023-05-07T16:00:22.095Z,4.40
2023-05-07T16:05:22.051Z,4.20
2023-05-07T16:10:21.990Z,4.10
2023-05-07T16:15:22.272Z,3.70
2023-05-07T16:20:21.918Z,3.40
2023-05-07T16:25:21.819Z,3.00
2023-05-07T16:30:21.750Z,2.70
2023-05-07T16:35:21.719Z,3.00
2023-05-07T16:40:21.719Z,2.70
2023-05-07T16:45:21.633Z,2.60
2023-05-07T16:50:21.556Z,2.40
2023-05-07T16:55:21.488Z,2.80
2023-05-07T17:00:21.497Z,2.50
2023-05-07T17:05:21.366Z,2.40
2023-05-07T17:10:21.330Z,2.60
2023-05-07T17:15:21.269Z,2.40
2023-05-07T17:20:21.436Z,3.20
2023-05-07T17:25:21.152Z,2.30
2023-05-07T17:30:21.149Z,2.60
2023-05-07T17:35:21.051Z,2.70
2023-05-07T17:40:21.039Z,2.40
2023-05-07T17:45:20.956Z,2.70
2023-05-07T17:50:20.894Z,3.10
2023-05-07T17:55:20.857Z,3.00
2023-05-07T18:00:20.805Z,5.30
2023-05-07T18:05:20.769Z,3.80
2023-05-07T18:10:20.710Z,2.70
2023-05-07T18:15:20.635Z,2.90
2023-05-07T18:20:20.645Z,2.70
2023-05-07T18:25:20.551Z,2.80
2023-05-07T18:30:20.490Z,3.00
2023-05-07T18:35:20.440Z,2.70
2023-05-07T18:40:20.388Z,2.90
2023-05-07T18:45:20.343Z,2.60
2023-05-07T18:50:20.407Z,3.20
2023-05-07T18:55:20.215Z,2.60
2023-05-07T19:00:20.190Z,2.80
2023-05-07T19:05:20.095Z,3.00
2023-05-07T19:10:20.304Z,3.10
2023-05-07T19:15:19.989Z,3.10
2023-05-07T19:20:19.962Z,3.00
2023-05-07T19:25:20.326Z,3.20
2023-05-07T19:30:19.807Z,2.90
2023-05-07T19:35:19.760Z,2.80
2023-05-07T19:40:19.728Z,3.20
2023-05-07T19:45:19.672Z,3.00
2023-05-07T19:50:19.610Z,3.50
2023-05-07T19:55:19.538Z,3.00
2023-05-07T20:00:19.516Z,4.00
2023-05-07T20:05:19.435Z,3.20
2023-05-07T20:10:19.392Z,3.00
2023-05-07T20:15:19.313Z,3.00
2023-05-07T20:20:19.324Z,2.90
2023-05-07T20:25:19.249Z,3.10
2023-05-07T20:30:19.185Z,3.50
2023-05-07T20:35:19.134Z,3.50
2023-05-07T20:40:19.085Z,3.30
2023-05-07T20:45:19.004Z,3.50
2023-05-07T20:50:18.990Z,3.60
2023-05-07T20:55:18.899Z,3.20
2023-05-07T21:00:18.870Z,3.40
2023-05-07T21:05:18.774Z,3.60
2023-05-07T21:10:18.739Z,3.30
2023-05-07T21:15:18.660Z,3.40
2023-05-07T21:20:18.645Z,4.60
2023-05-07T21:25:18.565Z,4.80
2023-05-07T21:30:18.501Z,4.80
2023-05-07T21:35:18.451Z,3.70
2023-05-07T21:40:18.435Z,5.00
2023-05-07T21:45:18.334Z,6.30
2023-05-07T21:50:18.300Z,5.10
2023-05-07T21:55:18.246Z,4.50
2023-05-07T22:00:18.220Z,4.70
2023-05-07T22:05:18.125Z,4.00
2023-05-07T22:10:18.081Z,4.20
2023-05-07T22:15:18.113Z,4.30
2023-05-07T22:20:17.988Z,4.50
2023-05-07T22:25:17.979Z,5.60
2023-05-07T22:30:17.855Z,5.20
2023-05-07T22:35:17.799Z,4.50
2023-05-07T22:40:17.882Z,4.20
2023-05-07T22:45:17.690Z,4.70
2023-05-07T22:50:17.633Z,4.80
2023-05-07T22:55:17.610Z,4.70
2023-05-07T23:00:17.566Z,4.50
2023-05-07T23:05:17.480Z,5.20
2023-05-07T23:10:17.418Z,5.10
2023-05-07T23:15:17.375Z,5.10
2023-05-07T23:20:17.334Z,4.80
2023-05-07T23:25:17.256Z,4.90
